Atlanta, Georgia
Traffic Map
Current Weather Conditions
Atlanta, Georgia
Scattered Clouds
Scattered Clouds
72°
Feels Like: 72°
Wind Chill: 72° Ceiling: Unl
Heat Index: 72° Visibility: 10mi
Dew Point: 66° Wind: 7mph
Humidity: 81% Direction: 160° (SSE)
Pressure: 30.06in Gusts: 0mph
Raw Report DataKATL 260852Z 16006KT 10SM FEW150 SCT250 22/19 A3006 RMK AO2 SLP166 T02220189 58012 $
Traffic Incident Summary
Active as of:
Severity:
Category:
InformationThere was an issue retrieving the traffic information for this location. Please try a different location or try again shortly.
Advertisements
Track Severe Weather on mobile